sensor_id;sensor_type;location;lat;lon;timestamp;P1;durP1;ratioP1;P2;durP2;ratioP2
10248;SDS011;5169;50.560;9.714;2022-11-10T00:00:41;9.37;;;5.10;;
10248;SDS011;5169;50.560;9.714;2022-11-10T00:03:07;9.57;;;5.30;;
10248;SDS011;5169;50.560;9.714;2022-11-10T00:05:35;10.47;;;5.50;;
10248;SDS011;5169;50.560;9.714;2022-11-10T00:08:06;9.53;;;5.63;;
10248;SDS011;5169;50.560;9.714;2022-11-10T00:10:35;11.07;;;5.33;;
10248;SDS011;5169;50.560;9.714;2022-11-10T00:13:27;9.23;;;6.13;;
10248;SDS011;5169;50.560;9.714;2022-11-10T00:16:03;12.27;;;5.60;;
10248;SDS011;5169;50.560;9.714;2022-11-10T00:18:50;9.70;;;5.33;;
10248;SDS011;5169;50.560;9.714;2022-11-10T00:21:16;10.37;;;5.80;;
10248;SDS011;5169;50.560;9.714;2022-11-10T00:23:45;9.97;;;5.57;;
10248;SDS011;5169;50.560;9.714;2022-11-10T00:26:16;9.63;;;5.83;;
10248;SDS011;5169;50.560;9.714;2022-11-10T00:28:49;13.10;;;5.77;;
10248;SDS011;5169;50.560;9.714;2022-11-10T00:31:14;9.33;;;5.60;;
10248;SDS011;5169;50.560;9.714;2022-11-10T00:33:41;12.57;;;6.03;;
10248;SDS011;5169;50.560;9.714;2022-11-10T00:36:08;8.87;;;5.80;;
10248;SDS011;5169;50.560;9.714;2022-11-10T00:38:42;11.13;;;6.30;;
10248;SDS011;5169;50.560;9.714;2022-11-10T00:41:07;15.43;;;7.63;;
10248;SDS011;5169;50.560;9.714;2022-11-10T00:43:33;12.40;;;7.20;;
10248;SDS011;5169;50.560;9.714;2022-11-10T00:46:05;8.67;;;6.63;;
10248;SDS011;5169;50.560;9.714;2022-11-10T00:48:33;10.43;;;7.43;;
10248;SDS011;5169;50.560;9.714;2022-11-10T00:51:06;12.00;;;7.43;;
10248;SDS011;5169;50.560;9.714;2022-11-10T00:53:33;10.67;;;7.87;;
10248;SDS011;5169;50.560;9.714;2022-11-10T00:56:04;11.63;;;7.60;;
10248;SDS011;5169;50.560;9.714;2022-11-10T00:58:32;11.03;;;7.13;;
10248;SDS011;5169;50.560;9.714;2022-11-10T01:01:04;16.03;;;7.60;;
10248;SDS011;5169;50.560;9.714;2022-11-10T01:03:30;14.07;;;7.33;;
10248;SDS011;5169;50.560;9.714;2022-11-10T01:05:57;11.47;;;6.90;;
10248;SDS011;5169;50.560;9.714;2022-11-10T01:08:31;9.07;;;6.63;;
10248;SDS011;5169;50.560;9.714;2022-11-10T01:11:04;9.77;;;7.03;;
10248;SDS011;5169;50.560;9.714;2022-11-10T01:13:31;12.53;;;7.90;;
10248;SDS011;5169;50.560;9.714;2022-11-10T01:16:02;13.67;;;9.07;;
10248;SDS011;5169;50.560;9.714;2022-11-10T01:18:29;15.03;;;9.63;;
10248;SDS011;5169;50.560;9.714;2022-11-10T01:20:55;14.60;;;10.13;;
10248;SDS011;5169;50.560;9.714;2022-11-10T01:23:20;20.40;;;11.07;;
10248;SDS011;5169;50.560;9.714;2022-11-10T01:25:46;21.10;;;11.30;;
10248;SDS011;5169;50.560;9.714;2022-11-10T01:28:20;18.50;;;12.30;;
10248;SDS011;5169;50.560;9.714;2022-11-10T01:30:46;22.23;;;11.77;;
10248;SDS011;5169;50.560;9.714;2022-11-10T01:33:20;16.53;;;10.87;;
10248;SDS011;5169;50.560;9.714;2022-11-10T01:35:53;21.40;;;12.43;;
10248;SDS011;5169;50.560;9.714;2022-11-10T01:38:21;16.10;;;11.30;;
10248;SDS011;5169;50.560;9.714;2022-11-10T01:40:51;15.53;;;9.93;;
10248;SDS011;5169;50.560;9.714;2022-11-10T01:43:19;17.10;;;10.63;;
10248;SDS011;5169;50.560;9.714;2022-11-10T01:50:56;15.80;;;11.27;;
10248;SDS011;5169;50.560;9.714;2022-11-10T01:53:29;16.13;;;9.67;;
10248;SDS011;5169;50.560;9.714;2022-11-10T01:55:58;15.73;;;10.17;;
10248;SDS011;5169;50.560;9.714;2022-11-10T01:58:33;14.13;;;9.80;;
10248;SDS011;5169;50.560;9.714;2022-11-10T02:01:09;16.03;;;9.40;;
10248;SDS011;5169;50.560;9.714;2022-11-10T02:06:19;14.17;;;9.37;;
10248;SDS011;5169;50.560;9.714;2022-11-10T02:08:53;14.67;;;10.23;;
10248;SDS011;5169;50.560;9.714;2022-11-10T02:11:22;11.63;;;9.50;;
10248;SDS011;5169;50.560;9.714;2022-11-10T02:13:56;13.10;;;9.63;;
10248;SDS011;5169;50.560;9.714;2022-11-10T02:16:26;12.07;;;9.30;;
10248;SDS011;5169;50.560;9.714;2022-11-10T02:18:52;20.43;;;9.83;;
10248;SDS011;5169;50.560;9.714;2022-11-10T02:21:19;16.43;;;11.20;;
10248;SDS011;5169;50.560;9.714;2022-11-10T02:23:51;13.63;;;10.27;;
10248;SDS011;5169;50.560;9.714;2022-11-10T02:26:22;15.50;;;9.93;;
10248;SDS011;5169;50.560;9.714;2022-11-10T02:28:53;13.87;;;10.60;;
10248;SDS011;5169;50.560;9.714;2022-11-10T02:31:22;14.70;;;10.60;;
10248;SDS011;5169;50.560;9.714;2022-11-10T02:33:51;17.80;;;11.17;;
10248;SDS011;5169;50.560;9.714;2022-11-10T02:36:18;16.60;;;11.27;;
10248;SDS011;5169;50.560;9.714;2022-11-10T02:38:44;13.33;;;10.37;;
10248;SDS011;5169;50.560;9.714;2022-11-10T02:41:16;13.17;;;10.80;;
10248;SDS011;5169;50.560;9.714;2022-11-10T02:43:42;14.00;;;10.07;;
10248;SDS011;5169;50.560;9.714;2022-11-10T02:46:08;13.80;;;9.93;;
10248;SDS011;5169;50.560;9.714;2022-11-10T02:48:38;17.50;;;10.87;;
10248;SDS011;5169;50.560;9.714;2022-11-10T02:51:03;15.87;;;10.23;;
10248;SDS011;5169;50.560;9.714;2022-11-10T02:53:31;16.73;;;10.70;;
10248;SDS011;5169;50.560;9.714;2022-11-10T02:55:57;15.67;;;10.93;;
10248;SDS011;5169;50.560;9.714;2022-11-10T02:58:30;20.73;;;9.90;;
10248;SDS011;5169;50.560;9.714;2022-11-10T03:00:58;16.93;;;11.20;;
10248;SDS011;5169;50.560;9.714;2022-11-10T03:03:32;18.93;;;10.77;;
10248;SDS011;5169;50.560;9.714;2022-11-10T03:05:58;16.80;;;11.07;;
10248;SDS011;5169;50.560;9.714;2022-11-10T03:08:30;18.83;;;11.43;;
10248;SDS011;5169;50.560;9.714;2022-11-10T03:10:55;16.27;;;10.63;;
10248;SDS011;5169;50.560;9.714;2022-11-10T03:13:26;20.50;;;11.40;;
10248;SDS011;5169;50.560;9.714;2022-11-10T03:15:52;17.53;;;11.83;;
10248;SDS011;5169;50.560;9.714;2022-11-10T03:18:17;18.80;;;12.10;;
10248;SDS011;5169;50.560;9.714;2022-11-10T03:20:45;14.60;;;10.57;;
10248;SDS011;5169;50.560;9.714;2022-11-10T03:23:15;19.60;;;12.10;;
10248;SDS011;5169;50.560;9.714;2022-11-10T03:25:42;19.73;;;12.33;;
10248;SDS011;5169;50.560;9.714;2022-11-10T03:28:10;19.33;;;12.80;;
10248;SDS011;5169;50.560;9.714;2022-11-10T03:30:44;19.87;;;11.87;;
10248;SDS011;5169;50.560;9.714;2022-11-10T03:33:10;17.93;;;12.20;;
10248;SDS011;5169;50.560;9.714;2022-11-10T03:35:44;19.83;;;11.77;;
10248;SDS011;5169;50.560;9.714;2022-11-10T03:38:10;16.93;;;11.53;;
10248;SDS011;5169;50.560;9.714;2022-11-10T03:40:44;20.07;;;12.73;;
10248;SDS011;5169;50.560;9.714;2022-11-10T03:43:17;17.67;;;12.00;;
10248;SDS011;5169;50.560;9.714;2022-11-10T03:45:43;21.87;;;12.70;;
10248;SDS011;5169;50.560;9.714;2022-11-10T03:48:09;17.57;;;12.03;;
10248;SDS011;5169;50.560;9.714;2022-11-10T03:50:34;21.80;;;11.77;;
10248;SDS011;5169;50.560;9.714;2022-11-10T03:53:06;15.50;;;12.00;;
10248;SDS011;5169;50.560;9.714;2022-11-10T03:55:34;18.77;;;11.37;;
10248;SDS011;5169;50.560;9.714;2022-11-10T03:58:03;18.80;;;11.17;;
10248;SDS011;5169;50.560;9.714;2022-11-10T04:00:28;20.83;;;10.77;;
10248;SDS011;5169;50.560;9.714;2022-11-10T04:02:59;15.87;;;10.43;;
10248;SDS011;5169;50.560;9.714;2022-11-10T04:05:33;16.83;;;11.13;;
10248;SDS011;5169;50.560;9.714;2022-11-10T04:08:17;22.23;;;10.83;;
10248;SDS011;5169;50.560;9.714;2022-11-10T04:11:03;15.00;;;10.60;;
10248;SDS011;5169;50.560;9.714;2022-11-10T04:13:29;18.97;;;10.33;;
10248;SDS011;5169;50.560;9.714;2022-11-10T04:16:16;17.93;;;10.00;;
10248;SDS011;5169;50.560;9.714;2022-11-10T04:18:44;18.77;;;10.70;;
10248;SDS011;5169;50.560;9.714;2022-11-10T04:21:10;17.30;;;10.23;;
10248;SDS011;5169;50.560;9.714;2022-11-10T04:23:38;17.93;;;9.50;;
10248;SDS011;5169;50.560;9.714;2022-11-10T04:26:11;14.87;;;9.30;;
10248;SDS011;5169;50.560;9.714;2022-11-10T04:29:04;15.90;;;9.30;;
10248;SDS011;5169;50.560;9.714;2022-11-10T04:31:33;13.97;;;9.27;;
10248;SDS011;5169;50.560;9.714;2022-11-10T04:34:03;13.23;;;9.20;;
10248;SDS011;5169;50.560;9.714;2022-11-10T04:36:31;12.70;;;8.70;;
10248;SDS011;5169;50.560;9.714;2022-11-10T04:39:04;13.10;;;8.73;;
10248;SDS011;5169;50.560;9.714;2022-11-10T04:41:33;16.97;;;9.43;;
10248;SDS011;5169;50.560;9.714;2022-11-10T04:44:09;14.87;;;8.93;;
10248;SDS011;5169;50.560;9.714;2022-11-10T04:46:39;13.03;;;9.23;;
10248;SDS011;5169;50.560;9.714;2022-11-10T04:49:06;13.57;;;8.80;;
10248;SDS011;5169;50.560;9.714;2022-11-10T04:51:33;15.57;;;9.20;;
10248;SDS011;5169;50.560;9.714;2022-11-10T04:54:04;20.37;;;9.60;;
10248;SDS011;5169;50.560;9.714;2022-11-10T04:56:30;13.97;;;8.63;;
10248;SDS011;5169;50.560;9.714;2022-11-10T04:58:58;15.37;;;9.17;;
10248;SDS011;5169;50.560;9.714;2022-11-10T05:01:27;14.63;;;8.80;;
10248;SDS011;5169;50.560;9.714;2022-11-10T05:03:58;15.20;;;8.73;;
10248;SDS011;5169;50.560;9.714;2022-11-10T05:06:24;14.50;;;8.73;;
10248;SDS011;5169;50.560;9.714;2022-11-10T05:08:58;17.87;;;9.40;;
10248;SDS011;5169;50.560;9.714;2022-11-10T05:11:31;16.10;;;8.50;;
10248;SDS011;5169;50.560;9.714;2022-11-10T05:13:57;12.77;;;9.83;;
10248;SDS011;5169;50.560;9.714;2022-11-10T05:16:22;15.17;;;9.70;;
10248;SDS011;5169;50.560;9.714;2022-11-10T05:18:48;15.47;;;9.07;;
10248;SDS011;5169;50.560;9.714;2022-11-10T05:21:22;15.43;;;9.80;;
10248;SDS011;5169;50.560;9.714;2022-11-10T05:23:47;17.47;;;9.33;;
10248;SDS011;5169;50.560;9.714;2022-11-10T05:26:17;16.67;;;9.40;;
10248;SDS011;5169;50.560;9.714;2022-11-10T05:28:46;16.27;;;8.80;;
10248;SDS011;5169;50.560;9.714;2022-11-10T05:31:11;15.23;;;8.93;;
10248;SDS011;5169;50.560;9.714;2022-11-10T05:33:40;12.83;;;8.33;;
10248;SDS011;5169;50.560;9.714;2022-11-10T05:36:10;18.90;;;9.50;;
10248;SDS011;5169;50.560;9.714;2022-11-10T05:38:41;13.37;;;9.53;;
10248;SDS011;5169;50.560;9.714;2022-11-10T05:41:09;17.10;;;9.30;;
10248;SDS011;5169;50.560;9.714;2022-11-10T05:43:41;15.43;;;9.17;;
10248;SDS011;5169;50.560;9.714;2022-11-10T05:46:06;16.33;;;9.70;;
10248;SDS011;5169;50.560;9.714;2022-11-10T05:48:34;17.07;;;10.07;;
10248;SDS011;5169;50.560;9.714;2022-11-10T05:51:00;14.17;;;9.87;;
10248;SDS011;5169;50.560;9.714;2022-11-10T05:53:26;19.27;;;10.87;;
10248;SDS011;5169;50.560;9.714;2022-11-10T05:55:57;19.90;;;9.90;;
10248;SDS011;5169;50.560;9.714;2022-11-10T05:58:23;14.93;;;9.57;;
10248;SDS011;5169;50.560;9.714;2022-11-10T06:00:48;14.57;;;9.00;;
10248;SDS011;5169;50.560;9.714;2022-11-10T06:03:20;14.13;;;9.10;;
10248;SDS011;5169;50.560;9.714;2022-11-10T06:05:46;17.60;;;9.83;;
10248;SDS011;5169;50.560;9.714;2022-11-10T06:08:12;14.43;;;9.67;;
10248;SDS011;5169;50.560;9.714;2022-11-10T06:10:41;14.70;;;9.03;;
10248;SDS011;5169;50.560;9.714;2022-11-10T06:13:07;16.23;;;9.73;;
10248;SDS011;5169;50.560;9.714;2022-11-10T06:15:35;16.33;;;9.70;;
10248;SDS011;5169;50.560;9.714;2022-11-10T06:18:05;15.40;;;9.57;;
10248;SDS011;5169;50.560;9.714;2022-11-10T06:20:31;12.70;;;9.00;;
10248;SDS011;5169;50.560;9.714;2022-11-10T06:25:23;15.20;;;9.13;;
10248;SDS011;5169;50.560;9.714;2022-11-10T06:27:50;19.57;;;9.67;;
10248;SDS011;5169;50.560;9.714;2022-11-10T06:30:18;13.30;;;9.03;;
10248;SDS011;5169;50.560;9.714;2022-11-10T06:32:44;15.70;;;8.70;;
10248;SDS011;5169;50.560;9.714;2022-11-10T06:35:12;13.40;;;8.47;;
10248;SDS011;5169;50.560;9.714;2022-11-10T06:37:38;15.77;;;7.90;;
10248;SDS011;5169;50.560;9.714;2022-11-10T06:40:06;15.13;;;8.37;;
10248;SDS011;5169;50.560;9.714;2022-11-10T06:42:43;11.63;;;8.13;;
10248;SDS011;5169;50.560;9.714;2022-11-10T06:45:09;18.93;;;9.20;;
10248;SDS011;5169;50.560;9.714;2022-11-10T06:47:34;12.40;;;8.43;;
10248;SDS011;5169;50.560;9.714;2022-11-10T06:50:06;14.43;;;8.63;;
10248;SDS011;5169;50.560;9.714;2022-11-10T06:52:35;13.00;;;9.00;;
10248;SDS011;5169;50.560;9.714;2022-11-10T06:55:04;13.80;;;8.53;;
10248;SDS011;5169;50.560;9.714;2022-11-10T06:57:38;19.83;;;9.20;;
10248;SDS011;5169;50.560;9.714;2022-11-10T07:00:04;13.60;;;9.23;;
10248;SDS011;5169;50.560;9.714;2022-11-10T07:02:31;14.93;;;9.77;;
10248;SDS011;5169;50.560;9.714;2022-11-10T07:05:00;13.97;;;8.43;;
10248;SDS011;5169;50.560;9.714;2022-11-10T07:07:31;16.03;;;8.30;;
10248;SDS011;5169;50.560;9.714;2022-11-10T07:09:57;20.50;;;8.67;;
10248;SDS011;5169;50.560;9.714;2022-11-10T07:12:31;10.67;;;7.30;;
10248;SDS011;5169;50.560;9.714;2022-11-10T07:14:57;15.30;;;7.73;;
10248;SDS011;5169;50.560;9.714;2022-11-10T07:17:30;12.57;;;8.60;;
10248;SDS011;5169;50.560;9.714;2022-11-10T07:19:58;11.27;;;8.70;;
10248;SDS011;5169;50.560;9.714;2022-11-10T07:22:30;12.53;;;9.03;;
10248;SDS011;5169;50.560;9.714;2022-11-10T07:24:56;14.47;;;8.23;;
10248;SDS011;5169;50.560;9.714;2022-11-10T07:27:22;17.80;;;9.53;;
10248;SDS011;5169;50.560;9.714;2022-11-10T07:29:47;16.97;;;8.77;;
10248;SDS011;5169;50.560;9.714;2022-11-10T07:32:19;13.17;;;9.13;;
10248;SDS011;5169;50.560;9.714;2022-11-10T07:34:46;13.53;;;9.20;;
10248;SDS011;5169;50.560;9.714;2022-11-10T07:37:15;17.53;;;9.97;;
10248;SDS011;5169;50.560;9.714;2022-11-10T07:39:41;20.27;;;9.63;;
10248;SDS011;5169;50.560;9.714;2022-11-10T07:42:09;15.03;;;9.23;;
10248;SDS011;5169;50.560;9.714;2022-11-10T07:44:35;15.83;;;9.50;;
10248;SDS011;5169;50.560;9.714;2022-11-10T07:47:03;13.57;;;9.00;;
10248;SDS011;5169;50.560;9.714;2022-11-10T07:49:29;14.87;;;9.00;;
10248;SDS011;5169;50.560;9.714;2022-11-10T07:51:55;17.43;;;9.30;;
10248;SDS011;5169;50.560;9.714;2022-11-10T07:54:20;16.63;;;9.37;;
10248;SDS011;5169;50.560;9.714;2022-11-10T07:56:46;16.97;;;9.43;;
10248;SDS011;5169;50.560;9.714;2022-11-10T07:59:16;14.97;;;8.83;;
10248;SDS011;5169;50.560;9.714;2022-11-10T08:01:41;12.97;;;9.20;;
10248;SDS011;5169;50.560;9.714;2022-11-10T08:04:07;14.50;;;9.13;;
10248;SDS011;5169;50.560;9.714;2022-11-10T08:06:33;19.50;;;8.67;;
10248;SDS011;5169;50.560;9.714;2022-11-10T08:08:59;17.10;;;8.53;;
10248;SDS011;5169;50.560;9.714;2022-11-10T08:11:33;13.67;;;8.53;;
10248;SDS011;5169;50.560;9.714;2022-11-10T08:13:59;14.07;;;8.27;;
10248;SDS011;5169;50.560;9.714;2022-11-10T08:16:28;13.13;;;7.57;;
10248;SDS011;5169;50.560;9.714;2022-11-10T08:18:53;14.80;;;7.50;;
10248;SDS011;5169;50.560;9.714;2022-11-10T08:21:21;13.93;;;7.60;;
10248;SDS011;5169;50.560;9.714;2022-11-10T08:23:47;12.63;;;7.53;;
10248;SDS011;5169;50.560;9.714;2022-11-10T08:26:18;13.30;;;8.33;;
10248;SDS011;5169;50.560;9.714;2022-11-10T08:28:44;12.47;;;7.87;;
10248;SDS011;5169;50.560;9.714;2022-11-10T08:31:10;14.70;;;7.47;;
10248;SDS011;5169;50.560;9.714;2022-11-10T08:33:39;17.27;;;7.23;;
10248;SDS011;5169;50.560;9.714;2022-11-10T08:36:05;12.23;;;7.10;;
10248;SDS011;5169;50.560;9.714;2022-11-10T08:38:31;11.00;;;6.80;;
10248;SDS011;5169;50.560;9.714;2022-11-10T08:40:56;14.30;;;7.03;;
10248;SDS011;5169;50.560;9.714;2022-11-10T08:43:22;14.93;;;6.97;;
10248;SDS011;5169;50.560;9.714;2022-11-10T08:45:54;13.60;;;6.70;;
10248;SDS011;5169;50.560;9.714;2022-11-10T08:48:22;13.90;;;6.70;;
10248;SDS011;5169;50.560;9.714;2022-11-10T08:50:57;11.50;;;6.60;;
10248;SDS011;5169;50.560;9.714;2022-11-10T08:53:30;13.83;;;6.83;;
10248;SDS011;5169;50.560;9.714;2022-11-10T08:55:59;14.73;;;7.43;;
10248;SDS011;5169;50.560;9.714;2022-11-10T08:58:31;10.77;;;6.40;;
10248;SDS011;5169;50.560;9.714;2022-11-10T09:00:56;8.70;;;5.60;;
10248;SDS011;5169;50.560;9.714;2022-11-10T09:03:22;15.07;;;6.23;;
10248;SDS011;5169;50.560;9.714;2022-11-10T09:05:56;17.77;;;6.07;;
10248;SDS011;5169;50.560;9.714;2022-11-10T09:08:22;10.00;;;5.00;;
10248;SDS011;5169;50.560;9.714;2022-11-10T09:10:47;11.87;;;5.10;;
10248;SDS011;5169;50.560;9.714;2022-11-10T09:13:19;12.13;;;5.30;;
10248;SDS011;5169;50.560;9.714;2022-11-10T09:15:47;11.47;;;5.13;;
10248;SDS011;5169;50.560;9.714;2022-11-10T09:18:20;10.60;;;4.90;;
10248;SDS011;5169;50.560;9.714;2022-11-10T09:20:48;11.47;;;4.93;;
10248;SDS011;5169;50.560;9.714;2022-11-10T09:23:17;10.93;;;5.00;;
10248;SDS011;5169;50.560;9.714;2022-11-10T09:25:47;16.03;;;5.40;;
10248;SDS011;5169;50.560;9.714;2022-11-10T09:28:21;12.07;;;5.27;;
10248;SDS011;5169;50.560;9.714;2022-11-10T09:30:48;10.40;;;5.63;;
10248;SDS011;5169;50.560;9.714;2022-11-10T09:33:21;11.40;;;5.37;;
10248;SDS011;5169;50.560;9.714;2022-11-10T09:35:49;14.03;;;5.87;;
10248;SDS011;5169;50.560;9.714;2022-11-10T09:38:17;12.67;;;5.80;;
10248;SDS011;5169;50.560;9.714;2022-11-10T09:40:48;14.03;;;5.90;;
10248;SDS011;5169;50.560;9.714;2022-11-10T09:43:20;12.37;;;5.93;;
10248;SDS011;5169;50.560;9.714;2022-11-10T09:46:33;12.53;;;6.70;;
10248;SDS011;5169;50.560;9.714;2022-11-10T09:49:02;10.53;;;5.90;;
10248;SDS011;5169;50.560;9.714;2022-11-10T09:51:47;14.83;;;5.80;;
10248;SDS011;5169;50.560;9.714;2022-11-10T09:54:35;12.17;;;5.70;;
10248;SDS011;5169;50.560;9.714;2022-11-10T09:57:11;15.93;;;5.40;;
10248;SDS011;5169;50.560;9.714;2022-11-10T09:59:43;14.83;;;5.07;;
10248;SDS011;5169;50.560;9.714;2022-11-10T10:08:08;9.10;;;4.97;;
10248;SDS011;5169;50.560;9.714;2022-11-10T10:16:25;13.77;;;5.20;;
10248;SDS011;5169;50.560;9.714;2022-11-10T10:19:20;12.70;;;5.20;;
10248;SDS011;5169;50.560;9.714;2022-11-10T10:24:32;10.47;;;5.23;;
10248;SDS011;5169;50.560;9.714;2022-11-10T10:26:59;13.77;;;5.30;;
10248;SDS011;5169;50.560;9.714;2022-11-10T10:29:38;10.20;;;5.50;;
10248;SDS011;5169;50.560;9.714;2022-11-10T10:32:12;11.03;;;5.20;;
10248;SDS011;5169;50.560;9.714;2022-11-10T10:34:43;14.07;;;5.40;;
10248;SDS011;5169;50.560;9.714;2022-11-10T10:37:23;10.63;;;4.97;;
10248;SDS011;5169;50.560;9.714;2022-11-10T10:39:55;15.37;;;5.33;;
10248;SDS011;5169;50.560;9.714;2022-11-10T10:42:32;13.47;;;5.13;;
10248;SDS011;5169;50.560;9.714;2022-11-10T10:45:10;14.47;;;5.50;;
10248;SDS011;5169;50.560;9.714;2022-11-10T10:47:38;10.00;;;5.27;;
10248;SDS011;5169;50.560;9.714;2022-11-10T10:55:38;8.50;;;4.27;;
10248;SDS011;5169;50.560;9.714;2022-11-10T10:58:36;9.87;;;4.63;;
10248;SDS011;5169;50.560;9.714;2022-11-10T11:01:26;9.47;;;5.07;;
10248;SDS011;5169;50.560;9.714;2022-11-10T11:03:57;9.57;;;4.40;;
10248;SDS011;5169;50.560;9.714;2022-11-10T11:06:25;9.30;;;4.70;;
10248;SDS011;5169;50.560;9.714;2022-11-10T11:11:31;11.87;;;4.97;;
10248;SDS011;5169;50.560;9.714;2022-11-10T11:16:46;11.50;;;4.47;;
10248;SDS011;5169;50.560;9.714;2022-11-10T11:19:21;10.43;;;4.13;;
10248;SDS011;5169;50.560;9.714;2022-11-10T11:30:21;11.50;;;4.10;;
10248;SDS011;5169;50.560;9.714;2022-11-10T11:38:29;8.23;;;3.83;;
10248;SDS011;5169;50.560;9.714;2022-11-10T11:44:01;7.73;;;3.27;;
10248;SDS011;5169;50.560;9.714;2022-11-10T11:52:54;7.80;;;3.57;;
10248;SDS011;5169;50.560;9.714;2022-11-10T11:55:35;7.53;;;2.97;;
10248;SDS011;5169;50.560;9.714;2022-11-10T12:07:04;10.87;;;3.20;;
10248;SDS011;5169;50.560;9.714;2022-11-10T12:10:12;6.90;;;2.90;;
10248;SDS011;5169;50.560;9.714;2022-11-10T12:18:26;11.90;;;3.60;;
10248;SDS011;5169;50.560;9.714;2022-11-10T12:21:14;9.50;;;3.23;;
10248;SDS011;5169;50.560;9.714;2022-11-10T12:29:02;9.83;;;2.93;;
10248;SDS011;5169;50.560;9.714;2022-11-10T12:31:50;12.77;;;3.17;;
10248;SDS011;5169;50.560;9.714;2022-11-10T12:34:39;9.40;;;2.90;;
10248;SDS011;5169;50.560;9.714;2022-11-10T12:43:12;9.53;;;3.13;;
10248;SDS011;5169;50.560;9.714;2022-11-10T12:46:10;9.00;;;3.00;;
10248;SDS011;5169;50.560;9.714;2022-11-10T12:51:38;7.20;;;3.00;;
10248;SDS011;5169;50.560;9.714;2022-11-10T12:54:21;9.90;;;3.37;;
10248;SDS011;5169;50.560;9.714;2022-11-10T12:56:52;10.27;;;3.03;;
10248;SDS011;5169;50.560;9.714;2022-11-10T13:02:00;8.77;;;3.20;;
10248;SDS011;5169;50.560;9.714;2022-11-10T13:04:45;7.97;;;2.47;;
10248;SDS011;5169;50.560;9.714;2022-11-10T13:07:44;8.27;;;2.30;;
10248;SDS011;5169;50.560;9.714;2022-11-10T13:10:26;8.53;;;2.57;;
10248;SDS011;5169;50.560;9.714;2022-11-10T13:12:59;9.03;;;2.40;;
10248;SDS011;5169;50.560;9.714;2022-11-10T13:20:58;7.10;;;2.70;;
10248;SDS011;5169;50.560;9.714;2022-11-10T13:26:01;8.73;;;2.80;;
10248;SDS011;5169;50.560;9.714;2022-11-10T13:39:22;9.23;;;3.07;;
10248;SDS011;5169;50.560;9.714;2022-11-10T13:58:41;6.30;;;2.60;;
10248;SDS011;5169;50.560;9.714;2022-11-10T14:03:51;8.60;;;2.80;;
10248;SDS011;5169;50.560;9.714;2022-11-10T14:12:27;7.37;;;2.67;;
10248;SDS011;5169;50.560;9.714;2022-11-10T14:14:59;10.30;;;2.67;;
10248;SDS011;5169;50.560;9.714;2022-11-10T14:17:39;8.37;;;2.43;;
10248;SDS011;5169;50.560;9.714;2022-11-10T14:22:57;9.47;;;2.97;;
10248;SDS011;5169;50.560;9.714;2022-11-10T14:25:25;12.07;;;2.80;;
10248;SDS011;5169;50.560;9.714;2022-11-10T14:28:00;9.83;;;2.80;;
10248;SDS011;5169;50.560;9.714;2022-11-10T14:30:27;10.40;;;2.60;;
10248;SDS011;5169;50.560;9.714;2022-11-10T14:33:01;10.20;;;3.20;;
10248;SDS011;5169;50.560;9.714;2022-11-10T14:35:35;5.80;;;2.50;;
10248;SDS011;5169;50.560;9.714;2022-11-10T14:38:21;11.00;;;2.60;;
10248;SDS011;5169;50.560;9.714;2022-11-10T14:40:57;7.83;;;2.53;;
10248;SDS011;5169;50.560;9.714;2022-11-10T14:43:26;5.83;;;2.47;;
10248;SDS011;5169;50.560;9.714;2022-11-10T14:46:02;10.73;;;2.60;;
10248;SDS011;5169;50.560;9.714;2022-11-10T14:48:34;8.77;;;2.87;;
10248;SDS011;5169;50.560;9.714;2022-11-10T14:51:05;8.37;;;2.90;;
10248;SDS011;5169;50.560;9.714;2022-11-10T14:53:40;7.93;;;3.10;;
10248;SDS011;5169;50.560;9.714;2022-11-10T14:56:16;6.17;;;3.07;;
10248;SDS011;5169;50.560;9.714;2022-11-10T14:58:52;8.93;;;3.07;;
10248;SDS011;5169;50.560;9.714;2022-11-10T15:01:36;6.63;;;2.87;;
10248;SDS011;5169;50.560;9.714;2022-11-10T15:04:06;9.03;;;3.03;;
10248;SDS011;5169;50.560;9.714;2022-11-10T15:06:35;9.00;;;3.37;;
10248;SDS011;5169;50.560;9.714;2022-11-10T15:09:10;10.83;;;3.50;;
10248;SDS011;5169;50.560;9.714;2022-11-10T15:11:39;9.50;;;3.37;;
10248;SDS011;5169;50.560;9.714;2022-11-10T15:17:02;7.93;;;3.37;;
10248;SDS011;5169;50.560;9.714;2022-11-10T15:25:14;9.60;;;3.30;;
10248;SDS011;5169;50.560;9.714;2022-11-10T15:28:05;8.57;;;3.43;;
10248;SDS011;5169;50.560;9.714;2022-11-10T15:30:36;11.57;;;3.30;;
10248;SDS011;5169;50.560;9.714;2022-11-10T15:33:10;8.23;;;3.00;;
10248;SDS011;5169;50.560;9.714;2022-11-10T15:35:41;7.40;;;2.93;;
10248;SDS011;5169;50.560;9.714;2022-11-10T15:48:48;7.63;;;3.40;;
10248;SDS011;5169;50.560;9.714;2022-11-10T15:51:18;10.40;;;3.90;;
10248;SDS011;5169;50.560;9.714;2022-11-10T15:53:50;10.37;;;3.63;;
10248;SDS011;5169;50.560;9.714;2022-11-10T15:56:25;8.17;;;3.73;;
10248;SDS011;5169;50.560;9.714;2022-11-10T15:58:51;9.07;;;3.97;;
10248;SDS011;5169;50.560;9.714;2022-11-10T16:01:23;10.97;;;3.80;;
10248;SDS011;5169;50.560;9.714;2022-11-10T16:03:49;8.37;;;4.07;;
10248;SDS011;5169;50.560;9.714;2022-11-10T16:06:17;12.57;;;4.87;;
10248;SDS011;5169;50.560;9.714;2022-11-10T16:08:51;9.73;;;4.80;;
10248;SDS011;5169;50.560;9.714;2022-11-10T16:11:17;9.60;;;5.10;;
10248;SDS011;5169;50.560;9.714;2022-11-10T16:13:48;9.77;;;4.63;;
10248;SDS011;5169;50.560;9.714;2022-11-10T16:16:15;9.47;;;4.57;;
10248;SDS011;5169;50.560;9.714;2022-11-10T16:18:49;12.83;;;4.70;;
10248;SDS011;5169;50.560;9.714;2022-11-10T16:21:16;9.17;;;4.37;;
10248;SDS011;5169;50.560;9.714;2022-11-10T16:23:48;9.23;;;4.07;;
10248;SDS011;5169;50.560;9.714;2022-11-10T16:26:15;9.83;;;5.30;;
10248;SDS011;5169;50.560;9.714;2022-11-10T16:28:51;9.90;;;5.90;;
10248;SDS011;5169;50.560;9.714;2022-11-10T16:31:22;16.43;;;6.33;;
10248;SDS011;5169;50.560;9.714;2022-11-10T16:33:50;11.40;;;4.90;;
10248;SDS011;5169;50.560;9.714;2022-11-10T16:38:49;7.87;;;4.00;;
10248;SDS011;5169;50.560;9.714;2022-11-10T16:41:18;9.73;;;4.10;;
10248;SDS011;5169;50.560;9.714;2022-11-10T16:43:51;10.87;;;5.17;;
10248;SDS011;5169;50.560;9.714;2022-11-10T16:46:28;10.13;;;4.70;;
10248;SDS011;5169;50.560;9.714;2022-11-10T16:49:02;12.47;;;5.30;;
10248;SDS011;5169;50.560;9.714;2022-11-10T16:51:39;16.77;;;6.13;;
10248;SDS011;5169;50.560;9.714;2022-11-10T16:54:14;15.23;;;7.50;;
10248;SDS011;5169;50.560;9.714;2022-11-10T16:56:40;15.53;;;6.80;;
10248;SDS011;5169;50.560;9.714;2022-11-10T16:59:06;15.33;;;5.60;;
10248;SDS011;5169;50.560;9.714;2022-11-10T17:01:34;11.53;;;6.03;;
10248;SDS011;5169;50.560;9.714;2022-11-10T17:04:04;17.30;;;6.47;;
10248;SDS011;5169;50.560;9.714;2022-11-10T17:06:38;11.40;;;6.23;;
10248;SDS011;5169;50.560;9.714;2022-11-10T17:09:38;11.57;;;5.63;;
10248;SDS011;5169;50.560;9.714;2022-11-10T17:11:59;10.87;;;5.07;;
10248;SDS011;5169;50.560;9.714;2022-11-10T17:14:27;11.87;;;5.20;;
10248;SDS011;5169;50.560;9.714;2022-11-10T17:16:52;11.37;;;5.90;;
10248;SDS011;5169;50.560;9.714;2022-11-10T17:19:20;11.73;;;5.23;;
10248;SDS011;5169;50.560;9.714;2022-11-10T17:21:49;8.83;;;4.27;;
10248;SDS011;5169;50.560;9.714;2022-11-10T17:24:17;15.43;;;6.60;;
10248;SDS011;5169;50.560;9.714;2022-11-10T17:26:51;16.97;;;7.87;;
10248;SDS011;5169;50.560;9.714;2022-11-10T17:29:20;14.20;;;6.37;;
10248;SDS011;5169;50.560;9.714;2022-11-10T17:31:49;14.00;;;5.40;;
10248;SDS011;5169;50.560;9.714;2022-11-10T17:34:18;9.70;;;4.23;;
10248;SDS011;5169;50.560;9.714;2022-11-10T17:36:49;8.47;;;3.90;;
10248;SDS011;5169;50.560;9.714;2022-11-10T17:39:15;11.33;;;4.67;;
10248;SDS011;5169;50.560;9.714;2022-11-10T17:41:42;15.07;;;5.40;;
10248;SDS011;5169;50.560;9.714;2022-11-10T17:44:11;11.80;;;5.57;;
10248;SDS011;5169;50.560;9.714;2022-11-10T17:46:41;15.23;;;5.30;;
10248;SDS011;5169;50.560;9.714;2022-11-10T17:49:13;15.23;;;5.73;;